Time;durP1;ratioP1;P1;durP2;ratioP2;P2;SDS_P1;SDS_P2;PMS_P1;PMS_P2;Temp;Humidity;BMP_temperature;BMP_pressure;BME280_temperature;BME280_humidity;BME280_pressure;Samples;Min_cycle;Max_cycle;Signal;HPM_P1;HPM_P2
2024/01/23 00:00:07;;;;;;;21.77;5.82;;;;;;;6.68;100.00;100816.81;10210117;28;20054;-74
2024/01/23 00:05:04;;;;;;;17.45;5.78;;;;;;;6.66;100.00;100820.88;10200810;28;20054;-71
2024/01/23 00:10:01;;;;;;;21.02;6.57;;;;;;;6.64;100.00;100839.41;10229755;28;20046;-72
2024/01/23 00:14:58;;;;;;;16.60;5.82;;;;;;;6.66;100.00;100837.19;10231196;28;20131;-69
2024/01/23 00:19:56;;;;;;;22.65;7.05;;;;;;;6.65;100.00;100846.44;10228261;28;20044;-71
2024/01/23 00:24:52;;;;;;;15.07;5.63;;;;;;;6.68;100.00;100835.00;10233739;28;20068;-70
2024/01/23 00:29:49;;;;;;;20.73;6.40;;;;;;;6.67;100.00;100833.38;10233315;28;20428;-70
2024/01/23 00:34:45;;;;;;;20.40;5.80;;;;;;;6.68;100.00;100824.94;10232360;28;20519;-72
2024/01/23 00:39:42;;;;;;;19.25;5.95;;;;;;;6.64;100.00;100828.53;10226946;28;20061;-69
2024/01/23 00:44:38;;;;;;;29.90;7.32;;;;;;;6.62;100.00;100849.75;10223981;28;20057;-70
2024/01/23 00:49:35;;;;;;;14.82;6.28;;;;;;;6.60;100.00;100847.31;10230395;28;20504;-70
2024/01/23 00:54:31;;;;;;;18.60;5.88;;;;;;;6.60;100.00;100843.78;10228450;28;20050;-70
2024/01/23 00:59:28;;;;;;;19.65;5.85;;;;;;;6.55;100.00;100862.88;10230875;28;20072;-70
2024/01/23 01:04:25;;;;;;;25.48;7.47;;;;;;;6.17;100.00;100938.66;10232096;28;20148;-70
2024/01/23 01:09:21;;;;;;;16.65;8.90;;;;;;;5.33;100.00;100952.13;10228844;28;20053;-71
2024/01/23 01:14:18;;;;;;;17.33;8.85;;;;;;;4.95;100.00;100924.59;10231121;28;20096;-71
2024/01/23 01:19:14;;;;;;;15.30;9.00;;;;;;;4.69;100.00;100916.53;10227464;28;20069;-71
2024/01/23 01:24:11;;;;;;;11.80;8.93;;;;;;;4.66;100.00;100917.03;10230973;28;20094;-71
2024/01/23 01:29:08;;;;;;;10.57;8.57;;;;;;;4.62;100.00;100930.34;10231775;28;20473;-71
2024/01/23 01:34:04;;;;;;;12.52;8.50;;;;;;;4.67;100.00;100940.34;10231053;28;20064;-72
2024/01/23 01:39:03;;;;;;;17.70;8.43;;;;;;;4.71;100.00;100927.91;10230970;28;20054;-71
2024/01/23 01:43:59;;;;;;;18.92;8.98;;;;;;;4.71;100.00;100944.16;10230157;28;20049;-72
2024/01/23 01:48:56;;;;;;;21.95;9.27;;;;;;;4.84;100.00;100950.88;10229924;28;20037;-70
2024/01/23 01:53:53;;;;;;;22.25;8.55;;;;;;;4.91;100.00;100958.75;10222621;28;20513;-71
2024/01/23 01:58:51;;;;;;;18.00;8.30;;;;;;;5.04;100.00;100977.16;10229803;28;20045;-70
2024/01/23 02:03:47;;;;;;;13.43;9.10;;;;;;;5.04;100.00;100993.41;10224507;28;20049;-69
2024/01/23 02:08:47;;;;;;;11.45;7.70;;;;;;;5.12;100.00;100990.13;10222599;28;20077;-70
2024/01/23 02:13:43;;;;;;;13.52;7.72;;;;;;;5.11;100.00;101004.78;10200600;28;20078;-71
2024/01/23 02:18:40;;;;;;;11.60;8.38;;;;;;;5.12;100.00;100995.53;10192740;28;20649;-69
2024/01/23 02:23:36;;;;;;;18.10;8.23;;;;;;;5.12;100.00;100989.31;10194767;28;20432;-70
2024/01/23 02:28:33;;;;;;;18.00;7.75;;;;;;;5.14;100.00;100987.94;10199267;28;20037;-70
2024/01/23 02:33:29;;;;;;;10.18;7.70;;;;;;;5.17;100.00;100990.09;10186789;28;20050;-69
2024/01/23 02:38:26;;;;;;;21.17;8.68;;;;;;;5.11;100.00;100999.34;10190548;28;20101;-70
2024/01/23 02:43:22;;;;;;;13.48;7.40;;;;;;;5.12;100.00;101006.38;10194211;28;20046;-71
2024/01/23 02:48:19;;;;;;;15.07;7.95;;;;;;;5.11;100.00;101004.78;10212151;28;20041;-71
2024/01/23 02:53:15;;;;;;;17.80;7.80;;;;;;;5.10;100.00;101003.13;10203313;28;20420;-70
2024/01/23 02:58:12;;;;;;;18.50;8.32;;;;;;;5.07;100.00;101003.69;10197517;28;20034;-70
2024/01/23 03:03:09;;;;;;;13.60;8.60;;;;;;;5.10;100.00;101007.75;10213639;28;20135;-71
2024/01/23 03:08:06;;;;;;;17.20;8.23;;;;;;;5.09;100.00;100995.28;10215311;28;20045;-72
2024/01/23 03:13:03;;;;;;;21.95;8.02;;;;;;;5.13;100.00;101024.28;10230413;28;20052;-71
2024/01/23 03:18:01;;;;;;;21.50;7.90;;;;;;;5.16;100.00;101012.88;10211105;28;20092;-71
2024/01/23 03:22:57;;;;;;;14.55;7.10;;;;;;;5.15;100.00;101022.13;10198693;28;20533;-70
2024/01/23 03:27:54;;;;;;;21.27;8.73;;;;;;;5.17;100.00;101030.75;10215211;28;20076;-70
2024/01/23 03:32:50;;;;;;;15.75;7.40;;;;;;;5.20;100.00;101043.00;10236051;28;20045;-70
2024/01/23 03:37:47;;;;;;;15.75;7.30;;;;;;;5.25;100.00;101049.19;10226692;28;20077;-71
2024/01/23 03:42:43;;;;;;;22.13;6.53;;;;;;;5.27;100.00;101076.84;10236272;28;20061;-71
2024/01/23 03:47:40;;;;;;;17.38;6.68;;;;;;;5.33;100.00;101074.13;10223927;28;20076;-73
2024/01/23 03:52:36;;;;;;;14.45;7.88;;;;;;;5.35;100.00;101071.97;10234525;28;20049;-70
2024/01/23 03:57:33;;;;;;;21.23;7.57;;;;;;;5.24;100.00;101107.22;10230343;28;20041;-71
2024/01/23 04:02:31;;;;;;;17.73;7.32;;;;;;;5.26;100.00;101102.31;10219238;28;20046;-72
2024/01/23 04:07:28;;;;;;;14.65;7.88;;;;;;;5.11;100.00;101112.38;10211419;28;20052;-71
2024/01/23 04:12:25;;;;;;;21.73;7.35;;;;;;;5.24;100.00;101109.09;10231171;28;20494;-69
2024/01/23 04:17:22;;;;;;;18.73;7.45;;;;;;;5.31;100.00;101111.53;10223072;28;20119;-70
2024/01/23 04:22:20;;;;;;;13.52;6.72;;;;;;;5.41;100.00;101122.41;10231611;28;20053;-71
2024/01/23 04:27:17;;;;;;;18.00;6.65;;;;;;;5.26;100.00;101126.72;10227658;28;20057;-71
2024/01/23 04:32:13;;;;;;;17.27;6.50;;;;;;;5.35;100.00;101145.16;10230528;28;20072;-72
2024/01/23 04:37:10;;;;;;;19.52;6.45;;;;;;;5.44;100.00;101143.53;10230523;28;20037;-71
2024/01/23 04:42:06;;;;;;;21.42;7.82;;;;;;;5.48;100.00;101134.59;10229787;28;20068;-72
2024/01/23 04:47:03;;;;;;;22.20;6.85;;;;;;;5.51;100.00;101145.97;10228591;28;20045;-72
2024/01/23 04:51:59;;;;;;;26.27;6.55;;;;;;;5.56;100.00;101156.81;10238944;28;20048;-71
2024/01/23 04:56:56;;;;;;;20.88;7.80;;;;;;;5.61;100.00;101170.38;10229244;28;20041;-71
2024/01/23 05:01:52;;;;;;;16.00;6.50;;;;;;;5.58;100.00;101182.56;10235712;28;20095;-72
2024/01/23 05:06:49;;;;;;;15.43;7.22;;;;;;;5.56;100.00;101179.31;10233817;28;20144;-71
2024/01/23 05:11:46;;;;;;;19.33;8.95;;;;;;;5.12;100.00;101206.16;10235438;28;20075;-74
2024/01/23 05:16:43;;;;;;;19.75;10.13;;;;;;;5.00;100.00;101209.13;10237031;28;20429;-71
2024/01/23 05:21:40;;;;;;;17.63;9.43;;;;;;;4.98;100.00;101230.25;10227842;28;20077;-71
2024/01/23 05:26:36;;;;;;;23.33;10.05;;;;;;;4.96;100.00;101235.13;10222728;28;20070;-72
2024/01/23 05:31:33;;;;;;;27.42;9.88;;;;;;;4.99;100.00;101223.75;10229145;28;20038;-71
2024/01/23 05:36:29;;;;;;;23.92;11.45;;;;;;;4.96;100.00;101254.09;10225644;28;20045;-72
2024/01/23 05:41:26;;;;;;;20.65;10.95;;;;;;;4.95;100.00;101255.19;10222128;28;20207;-72
2024/01/23 05:46:22;;;;;;;25.80;12.65;;;;;;;4.88;100.00;101249.22;10230008;28;20049;-76
2024/01/23 05:51:19;;;;;;;29.98;13.27;;;;;;;4.85;100.00;101262.22;10230305;28;20049;-72
2024/01/23 05:56:15;;;;;;;39.30;13.85;;;;;;;4.85;100.00;101266.81;10227184;28;20054;-74
2024/01/23 06:01:12;;;;;;;24.77;12.60;;;;;;;4.84;100.00;101265.97;10225143;28;20045;-72
2024/01/23 06:06:09;;;;;;;16.05;11.65;;;;;;;4.90;100.00;101279.53;10195867;28;20412;-73
2024/01/23 06:11:05;;;;;;;27.30;14.40;;;;;;;4.85;100.00;101289.31;10206126;28;20049;-74
2024/01/23 06:16:03;;;;;;;29.02;13.82;;;;;;;4.84;100.00;101290.38;10190440;28;20121;-72
2024/01/23 06:21:00;;;;;;;33.50;14.68;;;;;;;4.81;100.00;101299.03;10190815;28;20173;-77
2024/01/23 06:25:56;;;;;;;25.02;13.68;;;;;;;4.83;100.00;101299.59;10201248;28;20062;-72
2024/01/23 06:30:53;;;;;;;34.85;16.02;;;;;;;4.89;100.00;101305.03;10202281;28;20045;-71
2024/01/23 06:35:49;;;;;;;27.75;14.45;;;;;;;4.90;100.00;101312.06;10231245;28;20500;-71
2024/01/23 06:40:46;;;;;;;24.15;14.02;;;;;;;4.97;100.00;101318.06;10226521;28;20042;-74
2024/01/23 06:45:43;;;;;;;29.75;14.90;;;;;;;4.94;100.00;101329.44;10224298;28;20045;-73
2024/01/23 06:50:40;;;;;;;28.83;13.80;;;;;;;5.07;100.00;101339.78;10220516;28;20049;-71
2024/01/23 06:55:36;;;;;;;33.13;14.15;;;;;;;5.14;100.00;101361.22;10192620;28;20045;-76
2024/01/23 07:00:34;;;;;;;30.08;12.40;;;;;;;5.21;100.00;101362.59;10222187;28;20053;-74
2024/01/23 07:05:31;;;;;;;23.15;11.57;;;;;;;5.31;100.00;101388.13;10228647;28;20057;-74
2024/01/23 07:10:27;;;;;;;28.52;12.68;;;;;;;5.35;100.00;101400.06;10229219;28;20118;-74
2024/01/23 07:15:24;;;;;;;23.45;11.13;;;;;;;5.53;100.00;101440.28;10228738;28;20041;-73
2024/01/23 07:20:20;;;;;;;26.60;12.30;;;;;;;5.51;100.00;101415.31;10229173;28;20145;-74
2024/01/23 07:25:17;;;;;;;27.33;12.90;;;;;;;5.54;100.00;101441.91;10225825;28;20058;-76
2024/01/23 07:30:13;;;;;;;33.42;13.55;;;;;;;5.61;100.00;101452.50;10225117;28;20099;-77
2024/01/23 07:35:11;;;;;;;32.20;12.30;;;;;;;5.71;100.00;101471.53;10231202;28;20049;-73
2024/01/23 07:40:08;;;;;;;20.25;10.95;;;;;;;5.76;100.00;101503.31;10222817;28;20080;-73
2024/01/23 07:45:05;;;;;;;36.47;14.00;;;;;;;5.87;100.00;101496.81;10223166;28;20049;-72
2024/01/23 07:50:02;;;;;;;29.88;12.57;;;;;;;5.97;100.00;101499.59;10228641;28;20103;-74
2024/01/23 07:55:00;;;;;;;27.67;12.30;;;;;;;6.01;100.00;101525.13;10182500;28;20060;-74
2024/01/23 07:59:57;;;;;;;28.63;13.73;;;;;;;6.01;100.00;101533.28;10194615;28;20048;-74
2024/01/23 08:04:54;;;;;;;43.92;13.30;;;;;;;6.07;100.00;101543.03;10232802;28;20101;-74
2024/01/23 08:09:50;;;;;;;29.80;12.63;;;;;;;6.12;100.00;101572.13;10234744;28;20065;-73
2024/01/23 08:14:47;;;;;;;41.28;13.57;;;;;;;6.10;100.00;101594.13;10209863;28;20096;-75
2024/01/23 08:19:44;;;;;;;39.83;13.15;;;;;;;6.09;100.00;101599.81;10233691;28;20504;-74
2024/01/23 08:24:40;;;;;;;39.22;12.45;;;;;;;6.09;100.00;101627.78;10234909;28;20107;-73
2024/01/23 08:29:37;;;;;;;34.60;12.95;;;;;;;6.12;100.00;101626.41;10196480;28;20045;-72
2024/01/23 08:34:35;;;;;;;17.77;11.68;;;;;;;6.15;100.00;101638.66;10202018;28;20083;-73
2024/01/23 08:39:31;;;;;;;31.15;11.52;;;;;;;6.20;100.00;101660.41;10228321;28;20107;-73
2024/01/23 08:44:28;;;;;;;45.67;14.23;;;;;;;6.23;100.00;101654.44;10233431;28;20065;-76
2024/01/23 08:49:25;;;;;;;36.13;13.27;;;;;;;6.23;100.00;101676.16;10230484;28;20124;-75
2024/01/23 08:54:21;;;;;;;39.03;13.35;;;;;;;6.23;100.00;101697.91;10226743;28;20489;-73
2024/01/23 08:59:18;;;;;;;37.35;12.18;;;;;;;6.23;100.00;101703.31;10229231;28;20096;-73
2024/01/23 09:04:14;;;;;;;30.90;11.07;;;;;;;6.26;100.00;101719.91;10204506;28;20115;-74
2024/01/23 09:09:11;;;;;;;36.35;11.25;;;;;;;6.35;100.00;101743.84;10192774;28;20054;-73
2024/01/23 09:14:08;;;;;;;33.42;11.80;;;;;;;6.34;100.00;101740.31;10205026;28;20049;-73
2024/01/23 09:19:04;;;;;;;39.15;12.25;;;;;;;6.36;100.00;101737.31;10193179;28;20087;-76
2024/01/23 09:24:01;;;;;;;28.75;11.00;;;;;;;6.37;100.00;101758.00;10205315;28;20456;-78
2024/01/23 09:28:58;;;;;;;35.85;11.23;;;;;;;6.47;100.00;101775.13;10196234;28;20038;-73
2024/01/23 09:33:57;;;;;;;47.50;12.48;;;;;;;6.53;100.00;101784.97;10192019;28;20041;-73
2024/01/23 09:38:54;;;;;;;39.20;12.18;;;;;;;6.64;100.00;101774.16;10189490;28;20123;-74
2024/01/23 09:43:51;;;;;;;43.58;11.10;;;;;;;6.69;100.00;101787.75;10199371;28;20064;-73
2024/01/23 09:48:48;;;;;;;37.63;10.80;;;;;;;6.67;100.00;101800.78;10199874;28;20555;-76
2024/01/23 09:53:45;;;;;;;26.13;10.52;;;;;;;6.60;100.00;101821.97;10198443;28;20052;-75
2024/01/23 09:58:41;;;;;;;33.85;11.05;;;;;;;6.63;100.00;101821.41;10220576;28;20080;-72
2024/01/23 10:03:38;;;;;;;35.35;11.93;;;;;;;6.70;100.00;101838.31;10229357;28;20069;-74
2024/01/23 10:08:35;;;;;;;28.75;11.70;;;;;;;6.73;100.00;101837.78;10230195;28;20049;-72
2024/01/23 10:13:31;;;;;;;29.83;11.23;;;;;;;6.72;100.00;101847.00;10222498;28;20064;-74
2024/01/23 10:18:28;;;;;;;35.53;10.80;;;;;;;6.86;100.00;101869.91;10221823;28;20041;-74
2024/01/23 10:23:29;;;;;;;26.60;9.43;;;;;;;7.00;100.00;101861.28;10209718;28;20072;-74
2024/01/23 10:28:27;;;;;;;33.70;11.20;;;;;;;6.96;100.00;101863.69;10217327;28;20056;-73
2024/01/23 10:33:24;;;;;;;34.15;10.05;;;;;;;7.00;100.00;101869.44;10230565;28;20501;-75
2024/01/23 10:38:21;;;;;;;39.22;10.25;;;;;;;6.91;100.00;101894.41;10229245;28;20038;-73
2024/01/23 10:43:18;;;;;;;35.72;10.30;;;;;;;6.74;100.00;101882.91;10226451;28;20045;-75
2024/01/23 10:48:14;;;;;;;38.85;11.43;;;;;;;6.80;100.00;101886.47;10228851;28;20397;-72
2024/01/23 10:53:14;;;;;;;41.97;11.32;;;;;;;6.80;100.00;101900.91;10210289;28;20118;-76
2024/01/23 10:58:21;;;;;;;38.45;10.32;;;;;;;6.77;100.00;101915.00;10218548;28;20053;-72
2024/01/23 11:03:18;;;;;;;29.90;10.40;;;;;;;6.80;100.00;101909.03;10229271;28;20068;-73
2024/01/23 11:08:25;;;;;;;34.67;10.85;;;;;;;6.72;100.00;101902.19;10224230;28;20053;-73
2024/01/23 11:13:30;;;;;;;28.65;11.43;;;;;;;6.79;100.00;101923.69;10207995;28;20065;-73
2024/01/23 11:18:28;;;;;;;39.20;13.68;;;;;;;6.71;100.00;101916.06;10205609;28;20053;-74
2024/01/23 11:23:26;;;;;;;39.92;11.82;;;;;;;6.95;100.00;101922.72;10200682;28;20104;-73
2024/01/23 11:28:25;;;;;;;35.97;11.55;;;;;;;7.42;100.00;101921.00;10189554;28;20051;-73
2024/01/23 11:33:23;;;;;;;29.80;10.95;;;;;;;8.06;100.00;101908.06;10212634;28;20137;-74
2024/01/23 11:38:20;;;;;;;30.23;10.57;;;;;;;7.67;100.00;101901.22;10212247;28;20064;-72
2024/01/23 11:43:24;;;;;;;34.00;11.15;;;;;;;7.46;100.00;101926.75;10232964;28;20144;-77
2024/01/23 11:48:21;;;;;;;29.98;11.07;;;;;;;7.42;100.00;101914.75;10227528;28;20160;-73
2024/01/23 11:53:21;;;;;;;26.27;9.35;;;;;;;7.32;100.00;101937.31;10214115;28;20559;-74
2024/01/23 11:58:18;;;;;;;29.63;11.07;;;;;;;7.41;100.00;101924.00;10218929;28;20042;-73
2024/01/23 12:03:20;;;;;;;38.83;11.43;;;;;;;7.44;100.00;101935.16;10231952;28;20416;-73
2024/01/23 12:08:18;;;;;;;33.58;9.82;;;;;;;7.39;100.00;101937.88;10231844;28;20504;-73
2024/01/23 12:13:14;;;;;;;34.97;12.05;;;;;;;7.15;100.00;101942.94;10204422;28;20128;-74
2024/01/23 12:18:14;;;;;;;24.65;9.85;;;;;;;6.96;100.00;101939.84;10219616;28;20077;-73
2024/01/23 12:23:11;;;;;;;34.30;10.27;;;;;;;6.96;100.00;101934.41;10216431;28;20152;-73
2024/01/23 12:28:07;;;;;;;42.63;11.60;;;;;;;7.29;100.00;101916.88;10199321;28;20042;-78
2024/01/23 12:33:05;;;;;;;25.20;10.23;;;;;;;7.18;100.00;101920.66;10210090;28;20048;-74
2024/01/23 12:38:02;;;;;;;27.23;10.80;;;;;;;7.12;100.00;101922.50;10209562;28;20046;-77
2024/01/23 12:42:59;;;;;;;33.00;11.52;;;;;;;7.09;100.00;101911.34;10226482;28;20077;-73
2024/01/23 12:47:56;;;;;;;39.03;11.73;;;;;;;7.15;100.00;101899.44;10235080;28;20038;-75
2024/01/23 12:52:54;;;;;;;25.95;10.23;;;;;;;7.15;100.00;101899.44;10215328;28;20100;-73
2024/01/23 12:57:51;;;;;;;32.40;10.55;;;;;;;7.02;100.00;101919.75;10220045;28;20041;-73
2024/01/23 13:02:47;;;;;;;36.75;11.07;;;;;;;6.99;100.00;101911.31;10259577;28;20060;-73
2024/01/23 13:07:45;;;;;;;40.50;11.13;;;;;;;6.99;100.00;101922.19;10232352;28;20073;-73
2024/01/23 13:12:42;;;;;;;32.60;10.95;;;;;;;6.82;100.00;101938.66;10231459;28;20116;-76
2024/01/23 13:17:50;;;;;;;34.33;10.38;;;;;;;6.97;100.00;101954.28;10230560;28;20048;-74
2024/01/23 13:22:48;;;;;;;34.10;12.15;;;;;;;6.79;100.00;101950.88;10221891;28;20174;-75
2024/01/23 13:27:46;;;;;;;34.00;11.50;;;;;;;6.86;100.00;101961.53;10194595;28;20545;-74
2024/01/23 13:32:56;;;;;;;30.95;10.80;;;;;;;6.78;100.00;101965.56;10226277;28;20052;-78
2024/01/23 13:37:54;;;;;;;39.38;12.27;;;;;;;6.83;100.00;101973.75;10231031;28;20073;-74
2024/01/23 13:42:52;;;;;;;21.90;10.00;;;;;;;6.80;100.00;101979.72;10224378;28;20080;-73
2024/01/23 13:47:49;;;;;;;29.17;11.82;;;;;;;6.87;100.00;101969.44;10225217;28;20041;-75
2024/01/23 13:52:49;;;;;;;32.88;9.43;;;;;;;6.82;100.00;101963.94;10221684;28;20780;-75
2024/01/23 13:57:47;;;;;;;31.85;11.00;;;;;;;6.86;100.00;101950.66;10209236;28;20483;-75
2024/01/23 14:02:44;;;;;;;32.72;10.20;;;;;;;6.77;100.00;101963.91;10233558;28;20505;-74
2024/01/23 14:07:41;;;;;;;36.30;11.18;;;;;;;6.78;100.00;101971.00;10235403;28;20049;-74
2024/01/23 14:12:38;;;;;;;31.30;11.40;;;;;;;6.72;100.00;101961.16;10232009;28;20374;-73
2024/01/23 14:17:34;;;;;;;38.95;12.23;;;;;;;6.82;100.00;101982.97;10213615;28;20054;-73
2024/01/23 14:22:31;;;;;;;23.25;10.35;;;;;;;6.80;100.00;101978.88;10210780;28;20042;-71
2024/01/23 14:27:27;;;;;;;20.88;10.65;;;;;;;6.78;100.00;101976.44;10230608;28;20548;-74
2024/01/23 14:32:24;;;;;;;23.35;9.35;;;;;;;6.71;100.00;101989.44;10233682;28;20054;-73
2024/01/23 14:37:23;;;;;;;37.10;11.30;;;;;;;6.66;100.00;101967.63;10230703;28;20081;-73
2024/01/23 14:42:21;;;;;;;25.38;8.73;;;;;;;6.65;100.00;101960.59;10213253;28;20127;-73
2024/01/23 14:47:20;;;;;;;29.05;10.00;;;;;;;6.58;100.00;101954.56;10189800;28;20046;-75
2024/01/23 14:52:17;;;;;;;29.00;11.30;;;;;;;6.55;100.00;101960.53;10197511;28;20077;-73
2024/01/23 14:57:14;;;;;;;25.88;9.48;;;;;;;6.51;100.00;101942.00;10190694;28;20441;-74
2024/01/23 15:02:11;;;;;;;35.03;9.80;;;;;;;6.50;100.00;101943.09;10208503;28;20049;-75
2024/01/23 15:07:08;;;;;;;29.80;9.65;;;;;;;6.47;100.00;101959.88;10230492;28;20123;-73
2024/01/23 15:12:05;;;;;;;31.17;9.55;;;;;;;6.42;100.00;101945.47;10225411;28;20150;-74
2024/01/23 15:17:03;;;;;;;24.08;10.05;;;;;;;6.39;100.00;101944.09;10198204;28;20077;-74
2024/01/23 15:22:01;;;;;;;27.73;10.80;;;;;;;6.26;100.00;101936.38;10230525;28;20037;-76
2024/01/23 15:26:58;;;;;;;23.17;10.38;;;;;;;6.27;100.00;101938.03;10232646;28;20052;-74
2024/01/23 15:31:55;;;;;;;33.30;11.07;;;;;;;6.22;100.00;101946.09;10223231;28;20639;-73
2024/01/23 15:36:53;;;;;;;27.08;11.73;;;;;;;6.29;100.00;101936.69;10228381;28;20136;-71
2024/01/23 15:41:50;;;;;;;31.13;10.75;;;;;;;6.28;100.00;101939.66;10226094;28;20463;-72
2024/01/23 15:46:47;;;;;;;33.25;11.68;;;;;;;6.14;100.00;101939.25;10213337;28;20137;-77
2024/01/23 15:51:44;;;;;;;28.40;11.23;;;;;;;6.01;100.00;101913.34;10189265;28;20100;-75
2024/01/23 15:56:41;;;;;;;37.95;10.85;;;;;;;5.91;100.00;101908.59;10229895;28;20045;-73
2024/01/23 16:01:38;;;;;;;33.72;11.10;;;;;;;5.84;100.00;101912.59;10228088;28;20072;-72
2024/01/23 16:06:35;;;;;;;31.20;12.05;;;;;;;5.81;100.00;101919.38;10219570;28;20536;-73
2024/01/23 16:11:31;;;;;;;26.42;11.32;;;;;;;5.78;100.00;101908.19;10200246;28;20045;-74
2024/01/23 16:16:30;;;;;;;29.17;11.77;;;;;;;5.80;100.00;101906.03;10198995;28;20049;-75
2024/01/23 16:21:27;;;;;;;34.28;11.90;;;;;;;5.77;100.00;101898.44;10222584;28;20046;-74
2024/01/23 16:26:24;;;;;;;25.98;11.27;;;;;;;5.78;100.00;101886.47;10238324;28;20041;-74
2024/01/23 16:31:20;;;;;;;31.20;11.02;;;;;;;5.74;100.00;101885.38;10229689;28;20572;-76
2024/01/23 16:36:17;;;;;;;26.13;11.65;;;;;;;5.71;100.00;101875.84;10238304;28;20064;-73
2024/01/23 16:41:13;;;;;;;22.95;11.00;;;;;;;5.70;100.00;101891.31;10247055;28;20484;-76
2024/01/23 16:46:10;;;;;;;28.30;12.52;;;;;;;5.67;100.00;101870.13;10230768;28;20140;-77
2024/01/23 16:51:07;;;;;;;28.13;11.85;;;;;;;5.70;100.00;101875.00;10227354;28;20052;-75
2024/01/23 16:56:03;;;;;;;27.50;11.43;;;;;;;5.69;100.00;101878.81;10223518;28;20558;-74
2024/01/23 17:01:00;;;;;;;31.02;11.48;;;;;;;5.73;100.00;101878.28;10225951;28;20042;-75
2024/01/23 17:05:57;;;;;;;32.15;12.00;;;;;;;5.73;100.00;101872.88;10200762;28;20045;-78
2024/01/23 17:10:55;;;;;;;23.35;11.43;;;;;;;5.78;100.00;101859.34;10197824;28;20053;-73
2024/01/23 17:15:52;;;;;;;26.90;12.43;;;;;;;5.77;100.00;101846.84;10203670;28;20041;-73
2024/01/23 17:20:48;;;;;;;24.90;11.32;;;;;;;5.81;100.00;101837.13;10199872;28;20139;-77
2024/01/23 17:25:46;;;;;;;25.55;11.48;;;;;;;5.80;100.00;101830.91;10200348;28;20046;-73
2024/01/23 17:30:43;;;;;;;23.08;11.73;;;;;;;5.82;100.00;101833.34;10205725;28;20045;-76
2024/01/23 17:35:40;;;;;;;27.67;10.80;;;;;;;5.83;100.00;101824.13;10233447;28;20052;-78
2024/01/23 17:40:36;;;;;;;23.75;10.13;;;;;;;5.84;100.00;101791.28;10237349;28;20401;-74
2024/01/23 17:45:33;;;;;;;27.95;9.80;;;;;;;5.92;100.00;101795.44;10234353;28;20114;-72
2024/01/23 17:50:30;;;;;;;26.35;9.70;;;;;;;5.98;100.00;101793.59;10249642;28;20041;-73
2024/01/23 17:55:26;;;;;;;24.98;10.48;;;;;;;5.92;100.00;101757.44;10238684;28;20060;-74
2024/01/23 18:00:28;;;;;;;27.42;9.13;;;;;;;5.95;100.00;101746.06;10237613;28;20053;-75
2024/01/23 18:05:24;;;;;;;25.63;10.48;;;;;;;5.87;100.00;101738.38;10232452;28;20045;-75
2024/01/23 18:10:21;;;;;;;32.38;9.75;;;;;;;5.99;100.00;101709.19;10199883;28;20806;-72
2024/01/23 18:15:18;;;;;;;28.17;9.75;;;;;;;6.06;100.00;101717.91;10196388;28;20050;-74
2024/01/23 18:20:15;;;;;;;15.70;8.77;;;;;;;6.05;100.00;101702.69;10229811;28;20060;-78
2024/01/23 18:25:13;;;;;;;28.05;10.40;;;;;;;6.16;100.00;101689.16;10230290;28;20464;-73
2024/01/23 18:30:22;;;;;;;21.88;9.10;;;;;;;6.14;100.00;101666.91;10224790;28;20045;-73
2024/01/23 18:35:19;;;;;;;21.02;8.93;;;;;;;6.17;100.00;101660.94;10231633;28;20058;-72
2024/01/23 18:40:16;;;;;;;17.77;9.40;;;;;;;6.17;100.00;101639.19;10231848;28;20049;-72
2024/01/23 18:45:12;;;;;;;29.70;9.82;;;;;;;6.09;100.00;101654.91;10191041;28;20149;-72
2024/01/23 18:50:09;;;;;;;26.00;10.23;;;;;;;6.13;100.00;101657.09;10191392;28;20053;-73
2024/01/23 18:55:06;;;;;;;22.17;9.52;;;;;;;6.04;100.00;101641.31;10185200;28;20751;-72
2024/01/23 19:00:07;;;;;;;18.85;9.43;;;;;;;6.06;100.00;101633.75;10209296;28;20096;-74
2024/01/23 19:05:08;;;;;;;22.92;10.38;;;;;;;6.02;100.00;101619.06;10234408;28;20044;-72
2024/01/23 19:10:06;;;;;;;25.08;12.75;;;;;;;5.98;100.00;101609.81;10189491;28;20416;-73
2024/01/23 19:15:04;;;;;;;25.60;11.82;;;;;;;5.90;100.00;101597.53;10187546;28;20064;-72
2024/01/23 19:20:00;;;;;;;21.48;13.00;;;;;;;5.80;100.00;101591.22;10227392;28;20107;-72
2024/01/23 19:24:57;;;;;;;24.02;13.13;;;;;;;5.65;100.00;101581.94;10229291;28;20137;-73
2024/01/23 19:29:54;;;;;;;19.98;14.40;;;;;;;5.50;100.00;101549.31;10223460;28;20065;-73
2024/01/23 19:34:50;;;;;;;24.65;14.43;;;;;;;5.41;100.00;101564.47;10231805;28;20084;-73
2024/01/23 19:39:47;;;;;;;23.23;15.70;;;;;;;5.35;100.00;101535.66;10233054;28;20052;-73
2024/01/23 19:44:46;;;;;;;22.25;15.13;;;;;;;5.28;100.00;101496.03;10226819;28;20781;-72
2024/01/23 19:49:44;;;;;;;27.95;16.00;;;;;;;5.21;100.00;101454.78;10195310;28;20046;-74
2024/01/23 19:54:41;;;;;;;24.10;15.35;;;;;;;5.14;100.00;101429.81;10194324;28;20535;-73
2024/01/23 19:59:38;;;;;;;27.70;14.95;;;;;;;5.07;100.00;101405.66;10192324;28;20497;-73
2024/01/23 20:04:35;;;;;;;29.00;15.18;;;;;;;5.05;100.00;101375.28;10195022;28;20469;-73
2024/01/23 20:09:35;;;;;;;34.35;16.33;;;;;;;5.04;100.00;101334.91;10193956;28;20076;-73
2024/01/23 20:14:32;;;;;;;27.92;14.93;;;;;;;5.07;100.00;101302.66;10199172;28;20484;-72
2024/01/23 20:19:32;;;;;;;23.75;14.63;;;;;;;5.08;100.00;101303.44;10195241;28;20123;-73
2024/01/23 20:24:28;;;;;;;29.33;15.57;;;;;;;5.08;100.00;101260.09;10197948;28;20050;-72
2024/01/23 20:29:25;;;;;;;21.48;14.07;;;;;;;5.12;100.00;101239.50;10199565;28;20046;-74
2024/01/23 20:34:22;;;;;;;24.23;13.82;;;;;;;5.11;100.00;101218.09;10180536;28;20052;-74
2024/01/23 20:39:19;;;;;;;30.77;15.95;;;;;;;5.06;100.00;101192.63;10199526;28;20077;-75
2024/01/23 20:44:15;;;;;;;25.90;14.35;;;;;;;5.13;100.00;101192.34;10190164;28;20085;-70
2024/01/23 20:49:12;;;;;;;22.85;13.70;;;;;;;5.14;100.00;101161.44;10226557;28;20455;-72
2024/01/23 20:54:10;;;;;;;20.50;13.68;;;;;;;5.18;100.00;101113.72;10235570;28;20102;-73
2024/01/23 20:59:06;;;;;;;21.17;12.05;;;;;;;5.15;100.00;101130.56;10227909;28;20076;-75
2024/01/23 21:04:03;;;;;;;29.85;12.57;;;;;;;5.16;100.00;101094.22;10227236;28;20566;-74
2024/01/23 21:09:00;;;;;;;20.23;11.48;;;;;;;5.17;100.00;101076.84;10227898;28;20393;-74
2024/01/23 21:13:56;;;;;;;22.10;11.18;;;;;;;5.18;100.00;101058.72;10229412;28;20044;-73
2024/01/23 21:18:53;;;;;;;19.02;10.57;;;;;;;5.18;100.00;101047.88;10227977;28;20038;-74
2024/01/23 21:23:49;;;;;;;15.05;9.80;;;;;;;5.22;100.00;101027.22;10230894;28;20118;-73
2024/01/23 21:28:46;;;;;;;12.85;9.82;;;;;;;5.20;100.00;101013.97;10231541;28;20048;-73
2024/01/23 21:33:42;;;;;;;13.63;9.30;;;;;;;5.21;100.00;101007.44;10231435;28;20037;-72
2024/01/23 21:38:42;;;;;;;17.90;9.07;;;;;;;5.26;100.00;100968.66;10202369;28;20050;-74
2024/01/23 21:43:38;;;;;;;14.63;8.35;;;;;;;5.27;100.00;100938.59;10190816;28;20045;-74
2024/01/23 21:48:35;;;;;;;13.10;8.32;;;;;;;5.33;100.00;100930.44;10222811;28;20048;-72
2024/01/23 21:53:32;;;;;;;10.63;7.47;;;;;;;5.40;100.00;100910.03;10230084;28;20091;-68
2024/01/23 21:58:28;;;;;;;10.15;7.63;;;;;;;5.46;100.00;100875.59;10230197;28;20050;-71
2024/01/23 22:03:25;;;;;;;7.53;6.93;;;;;;;5.49;100.00;100848.72;10231201;28;20072;-70
2024/01/23 22:08:22;;;;;;;8.27;7.55;;;;;;;5.52;100.00;100831.06;10230820;28;20049;-69
2024/01/23 22:13:18;;;;;;;9.95;7.40;;;;;;;5.54;100.00;100811.81;10229000;28;20064;-70
2024/01/23 22:18:15;;;;;;;8.02;7.32;;;;;;;5.56;100.00;100791.44;10229192;28;20508;-69